Time;durP1;ratioP1;P1;durP2;ratioP2;P2;SDS_P1;SDS_P2;PMS_P1;PMS_P2;Temp;Humidity;BMP_temperature;BMP_pressure;BME280_temperature;BME280_humidity;BME280_pressure;Samples;Min_cycle;Max_cycle;Signal;HPM_P1;HPM_P2
2022/09/14 00:01:33;;;;;;;7.65;3.33;;;;;;;;;;4394571;32;20721;-85
2022/09/14 00:04:03;;;;;;;4.80;3.12;;;;;;;;;;4389419;32;20278;-82
2022/09/14 00:06:31;;;;;;;3.90;3.45;;;;;;;;;;4389758;32;20226;-84
2022/09/14 00:09:00;;;;;;;4.37;3.17;;;;;;;;;;4389153;32;20307;-88
2022/09/14 00:11:29;;;;;;;4.65;3.47;;;;;;;;;;4389037;32;20224;-85
2022/09/14 00:13:57;;;;;;;7.15;3.55;;;;;;;;;;4390126;32;20271;-86
2022/09/14 00:16:28;;;;;;;3.60;3.30;;;;;;;;;;4403682;32;20601;-84
2022/09/14 00:18:59;;;;;;;9.57;3.00;;;;;;;;;;4404211;32;20342;-86
2022/09/14 00:21:27;;;;;;;4.40;3.80;;;;;;;;;;4404733;32;20645;-86
2022/09/14 00:23:54;;;;;;;6.30;3.50;;;;;;;;;;4403736;32;20271;-83
2022/09/14 00:26:23;;;;;;;4.65;3.37;;;;;;;;;;4403986;32;20283;-83
2022/09/14 00:28:52;;;;;;;11.18;3.55;;;;;;;;;;4403960;32;20268;-84
2022/09/14 00:31:20;;;;;;;4.93;3.28;;;;;;;;;;4403972;32;20209;-84
2022/09/14 00:33:51;;;;;;;6.85;3.67;;;;;;;;;;4403650;32;20275;-83
2022/09/14 00:36:21;;;;;;;8.48;3.85;;;;;;;;;;4404551;32;20209;-86
2022/09/14 00:38:48;;;;;;;4.03;3.62;;;;;;;;;;4403955;32;20237;-86
2022/09/14 00:41:18;;;;;;;4.85;3.30;;;;;;;;;;4404391;32;20239;-84
2022/09/14 00:43:53;;;;;;;7.28;3.75;;;;;;;;;;4393046;32;20276;-84
2022/09/14 00:46:21;;;;;;;5.22;3.92;;;;;;;;;;4387926;32;20217;-86
2022/09/14 00:48:49;;;;;;;3.80;2.97;;;;;;;;;;4388839;32;20245;-85
2022/09/14 00:51:18;;;;;;;6.35;3.50;;;;;;;;;;4401299;32;20229;-83
2022/09/14 00:53:45;;;;;;;4.32;3.70;;;;;;;;;;4404198;32;20237;-83
2022/09/14 00:56:13;;;;;;;5.55;3.65;;;;;;;;;;4404215;32;20245;-86
2022/09/14 00:58:40;;;;;;;4.13;3.63;;;;;;;;;;4403630;32;20333;-86
2022/09/14 01:01:08;;;;;;;3.62;3.22;;;;;;;;;;4403402;32;20237;-86
2022/09/14 01:03:35;;;;;;;4.78;4.20;;;;;;;;;;4403578;32;20253;-84
2022/09/14 01:06:10;;;;;;;4.57;3.53;;;;;;;;;;4403578;32;20270;-86
2022/09/14 01:09:06;;;;;;;5.53;3.97;;;;;;;;;;4404379;32;20221;-86
2022/09/14 01:11:47;;;;;;;7.07;3.95;;;;;;;;;;4404452;32;20707;-85
2022/09/14 01:14:21;;;;;;;4.37;3.77;;;;;;;;;;4403944;32;20241;-87
2022/09/14 01:16:55;;;;;;;3.93;3.37;;;;;;;;;;4404292;32;20283;-84
2022/09/14 01:19:37;;;;;;;5.97;3.62;;;;;;;;;;4404027;32;20256;-86
2022/09/14 01:22:13;;;;;;;6.93;3.73;;;;;;;;;;4403981;32;20216;-83
2022/09/14 01:24:46;;;;;;;4.77;3.47;;;;;;;;;;4404039;32;20649;-84
2022/09/14 01:27:40;;;;;;;4.22;3.58;;;;;;;;;;4403688;32;20312;-87
2022/09/14 01:30:09;;;;;;;5.27;3.93;;;;;;;;;;4403622;32;20306;-87
2022/09/14 01:32:42;;;;;;;7.60;4.47;;;;;;;;;;4403530;32;20249;-86
2022/09/14 01:35:16;;;;;;;10.68;4.35;;;;;;;;;;4403227;32;20259;-84
2022/09/14 01:37:47;;;;;;;5.40;3.60;;;;;;;;;;4404006;32;20261;-85
2022/09/14 01:40:18;;;;;;;7.97;3.20;;;;;;;;;;4401052;32;20330;-85
2022/09/14 01:42:51;;;;;;;6.57;2.80;;;;;;;;;;4389333;32;20663;-84
2022/09/14 01:45:20;;;;;;;4.90;2.70;;;;;;;;;;4403265;32;20279;-86
2022/09/14 01:47:55;;;;;;;5.27;3.00;;;;;;;;;;4403159;32;20360;-87
2022/09/14 01:50:26;;;;;;;9.60;3.27;;;;;;;;;;4395933;32;20256;-85
2022/09/14 01:52:58;;;;;;;3.30;3.00;;;;;;;;;;4388439;32;20238;-83
2022/09/14 01:55:28;;;;;;;3.93;2.80;;;;;;;;;;4388571;32;20251;-87
2022/09/14 01:58:02;;;;;;;3.30;2.60;;;;;;;;;;4389788;32;20256;-86
2022/09/14 02:00:30;;;;;;;3.90;2.90;;;;;;;;;;4395617;32;20268;-88
2022/09/14 02:03:02;;;;;;;3.17;2.83;;;;;;;;;;4406262;32;20239;-84
2022/09/14 02:05:36;;;;;;;3.10;2.80;;;;;;;;;;4403179;32;20233;-87
2022/09/14 02:08:03;;;;;;;3.63;3.20;;;;;;;;;;4403214;32;20214;-86
2022/09/14 02:10:30;;;;;;;4.80;2.87;;;;;;;;;;4402838;32;20613;-85
2022/09/14 02:12:59;;;;;;;5.33;2.47;;;;;;;;;;4402892;32;20229;-86
2022/09/14 02:15:27;;;;;;;6.63;2.83;;;;;;;;;;4403545;32;20351;-85
2022/09/14 02:17:55;;;;;;;4.05;3.22;;;;;;;;;;4403607;32;20217;-86
2022/09/14 02:20:25;;;;;;;6.63;3.17;;;;;;;;;;4409996;32;20245;-85
2022/09/14 02:22:54;;;;;;;3.87;3.17;;;;;;;;;;4409805;32;20279;-85
2022/09/14 02:25:23;;;;;;;4.70;3.37;;;;;;;;;;4407163;32;20722;-84
2022/09/14 02:27:51;;;;;;;6.97;3.80;;;;;;;;;;4404039;32;20249;-86
2022/09/14 02:30:20;;;;;;;7.85;3.83;;;;;;;;;;4411640;32;20270;-82
2022/09/14 02:32:56;;;;;;;13.07;4.28;;;;;;;;;;4416624;32;20266;-83
2022/09/14 02:35:27;;;;;;;9.17;4.47;;;;;;;;;;4412333;32;20231;-83
2022/09/14 02:38:01;;;;;;;6.18;3.92;;;;;;;;;;4401978;32;20293;-83
2022/09/14 02:40:34;;;;;;;5.65;3.97;;;;;;;;;;4412242;32;20222;-82
2022/09/14 02:43:12;;;;;;;4.65;3.58;;;;;;;;;;4400126;32;20261;-83
2022/09/14 02:45:47;;;;;;;3.73;3.27;;;;;;;;;;4411758;32;20229;-81
2022/09/14 02:48:19;;;;;;;3.65;3.30;;;;;;;;;;4405229;32;20272;-84
2022/09/14 02:50:51;;;;;;;8.63;3.77;;;;;;;;;;4405382;32;20241;-83
2022/09/14 02:53:24;;;;;;;9.20;3.22;;;;;;;;;;4400383;32;20205;-82
2022/09/14 02:55:55;;;;;;;4.93;3.30;;;;;;;;;;4403233;32;20174;-83
2022/09/14 02:58:22;;;;;;;4.43;3.80;;;;;;;;;;4401644;32;20277;-83
2022/09/14 03:00:51;;;;;;;4.57;3.97;;;;;;;;;;4408369;32;20221;-82
2022/09/14 03:03:20;;;;;;;5.10;3.60;;;;;;;;;;4417685;32;20260;-82
2022/09/14 03:05:48;;;;;;;5.00;4.23;;;;;;;;;;4418995;32;20217;-83
2022/09/14 03:08:15;;;;;;;6.20;4.53;;;;;;;;;;4421621;32;20267;-84
2022/09/14 03:10:43;;;;;;;8.63;5.40;;;;;;;;;;4406904;32;20681;-86
2022/09/14 03:13:11;;;;;;;10.93;5.50;;;;;;;;;;4406755;32;20283;-87
2022/09/14 03:15:38;;;;;;;9.60;4.97;;;;;;;;;;4407027;32;20674;-84
2022/09/14 03:18:09;;;;;;;9.77;4.73;;;;;;;;;;4406937;32;20351;-85
2022/09/14 03:20:36;;;;;;;15.20;4.80;;;;;;;;;;4407071;32;20241;-86
2022/09/14 03:23:05;;;;;;;8.90;4.73;;;;;;;;;;4406409;32;20284;-87
2022/09/14 03:25:35;;;;;;;8.05;5.12;;;;;;;;;;4407541;32;20221;-88
2022/09/14 03:28:02;;;;;;;7.55;4.75;;;;;;;;;;4405463;32;20261;-83
2022/09/14 03:30:32;;;;;;;9.27;5.03;;;;;;;;;;4404985;32;20236;-83
2022/09/14 03:33:02;;;;;;;4.85;3.67;;;;;;;;;;4378229;32;20289;-86
2022/09/14 03:35:33;;;;;;;4.62;3.90;;;;;;;;;;4396061;32;20639;-87
2022/09/14 03:38:01;;;;;;;10.70;4.83;;;;;;;;;;4407859;32;20234;-82
2022/09/14 03:40:29;;;;;;;8.30;4.73;;;;;;;;;;4396377;32;20308;-83
2022/09/14 03:42:56;;;;;;;8.00;5.07;;;;;;;;;;4391897;32;20237;-87
2022/09/14 03:45:29;;;;;;;8.10;4.33;;;;;;;;;;4394878;32;20272;-84
2022/09/14 03:47:56;;;;;;;10.97;3.80;;;;;;;;;;4391206;32;20599;-85
2022/09/14 03:50:23;;;;;;;9.83;4.10;;;;;;;;;;4397122;32;20605;-87
2022/09/14 03:52:51;;;;;;;5.13;3.73;;;;;;;;;;4405074;32;20245;-86
2022/09/14 03:55:19;;;;;;;8.53;5.10;;;;;;;;;;4405135;32;20620;-86
2022/09/14 03:57:46;;;;;;;7.37;6.60;;;;;;;;;;4404820;32;20632;-87
2022/09/14 04:00:15;;;;;;;8.30;5.97;;;;;;;;;;4404460;32;20240;-87
2022/09/14 04:02:41;;;;;;;17.73;7.80;;;;;;;;;;4404759;32;20241;-87
2022/09/14 04:05:09;;;;;;;17.63;7.93;;;;;;;;;;4404740;32;20275;-86
2022/09/14 04:07:36;;;;;;;8.63;6.50;;;;;;;;;;4404693;32;20322;-86
2022/09/14 04:10:06;;;;;;;9.07;6.67;;;;;;;;;;4404388;32;20628;-85
2022/09/14 04:12:35;;;;;;;9.73;7.70;;;;;;;;;;4404819;32;20264;-87
2022/09/14 04:15:02;;;;;;;10.63;5.60;;;;;;;;;;4404245;32;20276;-87
2022/09/14 04:17:29;;;;;;;15.73;7.33;;;;;;;;;;4404440;32;20290;-83
2022/09/14 04:19:56;;;;;;;10.33;4.50;;;;;;;;;;4404363;32;20593;-86
2022/09/14 04:22:23;;;;;;;14.57;5.10;;;;;;;;;;4403966;32;20249;-87
2022/09/14 04:24:50;;;;;;;11.23;5.63;;;;;;;;;;4404601;32;20270;-86
2022/09/14 04:27:18;;;;;;;9.77;4.40;;;;;;;;;;4404118;32;20294;-85
2022/09/14 04:29:45;;;;;;;12.80;5.07;;;;;;;;;;4404407;32;20336;-87
2022/09/14 04:32:12;;;;;;;6.10;4.93;;;;;;;;;;4395274;32;20242;-88
2022/09/14 04:34:38;;;;;;;6.43;5.23;;;;;;;;;;4387879;32;20261;-85
2022/09/14 04:37:05;;;;;;;12.07;5.93;;;;;;;;;;4388868;32;20332;-87
2022/09/14 04:39:32;;;;;;;8.33;4.33;;;;;;;;;;4388645;32;20234;-84
2022/09/14 04:42:02;;;;;;;7.17;5.20;;;;;;;;;;4396122;32;20252;-85
2022/09/14 04:44:33;;;;;;;5.70;4.30;;;;;;;;;;4403812;32;20280;-86
2022/09/14 04:47:00;;;;;;;5.80;4.03;;;;;;;;;;4389867;32;20273;-85
2022/09/14 04:49:27;;;;;;;6.33;4.57;;;;;;;;;;4402144;32;20273;-85
2022/09/14 04:51:54;;;;;;;8.27;5.10;;;;;;;;;;4388616;32;20323;-86
2022/09/14 04:54:24;;;;;;;10.10;5.40;;;;;;;;;;4388724;32;20599;-83
2022/09/14 04:56:51;;;;;;;6.67;5.10;;;;;;;;;;4388447;32;20342;-84
2022/09/14 04:59:20;;;;;;;10.17;5.00;;;;;;;;;;4388449;32;20556;-83
2022/09/14 05:01:50;;;;;;;6.47;5.63;;;;;;;;;;4399733;32;20237;-86
2022/09/14 05:04:17;;;;;;;16.97;5.30;;;;;;;;;;4403666;32;20244;-86
2022/09/14 05:06:45;;;;;;;11.63;5.40;;;;;;;;;;4403624;32;20696;-88
2022/09/14 05:09:14;;;;;;;13.60;4.87;;;;;;;;;;4403351;32;20609;-86
2022/09/14 05:11:42;;;;;;;8.03;4.90;;;;;;;;;;4403423;32;20245;-86
2022/09/14 05:14:10;;;;;;;10.03;6.60;;;;;;;;;;4402837;32;20284;-81
2022/09/14 05:16:38;;;;;;;8.77;6.03;;;;;;;;;;4403129;32;20304;-83
2022/09/14 05:19:11;;;;;;;5.13;4.63;;;;;;;;;;4403102;32;20338;-79
2022/09/14 05:21:39;;;;;;;6.80;5.17;;;;;;;;;;4403115;32;20237;-85
2022/09/14 05:24:08;;;;;;;6.43;5.07;;;;;;;;;;4397331;32;20321;-79
2022/09/14 05:26:36;;;;;;;6.20;5.50;;;;;;;;;;4387497;32;20249;-83
2022/09/14 05:29:04;;;;;;;13.87;5.17;;;;;;;;;;4399616;32;20729;-85
2022/09/14 05:31:31;;;;;;;5.83;4.40;;;;;;;;;;4400342;32;20256;-83
2022/09/14 05:33:59;;;;;;;4.37;3.97;;;;;;;;;;4400927;32;20261;-85
2022/09/14 05:36:28;;;;;;;12.87;5.63;;;;;;;;;;4401199;32;20249;-84
2022/09/14 05:38:56;;;;;;;9.40;5.13;;;;;;;;;;4400688;32;20294;-83
2022/09/14 05:41:23;;;;;;;12.47;5.97;;;;;;;;;;4392540;32;20277;-83
2022/09/14 05:43:50;;;;;;;8.57;5.60;;;;;;;;;;4384522;32;20229;-84
2022/09/14 05:46:19;;;;;;;7.60;4.67;;;;;;;;;;4386002;32;20261;-84
2022/09/14 05:48:46;;;;;;;10.30;5.20;;;;;;;;;;4386899;32;20225;-85
2022/09/14 05:51:15;;;;;;;6.50;3.83;;;;;;;;;;4398906;32;20236;-84
2022/09/14 05:53:49;;;;;;;10.90;4.37;;;;;;;;;;4401611;32;20253;-84
2022/09/14 05:56:17;;;;;;;6.70;3.80;;;;;;;;;;4401279;32;20263;-84
2022/09/14 05:58:45;;;;;;;7.43;4.10;;;;;;;;;;4387059;32;20770;-84
2022/09/14 06:01:14;;;;;;;4.30;3.90;;;;;;;;;;4397909;32;20292;-84
2022/09/14 06:03:41;;;;;;;6.90;3.90;;;;;;;;;;4387580;32;20585;-85
2022/09/14 06:06:09;;;;;;;5.40;3.63;;;;;;;;;;4388222;32;20409;-87
2022/09/14 06:08:37;;;;;;;6.57;4.00;;;;;;;;;;4387634;32;20388;-85
2022/09/14 06:11:07;;;;;;;9.00;4.23;;;;;;;;;;4387726;32;20217;-85
2022/09/14 06:13:34;;;;;;;31.80;7.23;;;;;;;;;;4398219;32;20225;-86
2022/09/14 06:16:24;;;;;;;48.83;11.30;;;;;;;;;;4404134;32;20236;-85
2022/09/14 06:18:52;;;;;;;27.73;9.33;;;;;;;;;;4370887;32;20242;-85
2022/09/14 06:21:21;;;;;;;11.70;6.07;;;;;;;;;;4370587;32;20271;-86
2022/09/14 06:23:49;;;;;;;11.17;6.00;;;;;;;;;;4368305;32;20238;-86
2022/09/14 06:26:17;;;;;;;7.10;5.43;;;;;;;;;;4356709;33;20413;-85
2022/09/14 06:28:44;;;;;;;8.73;5.87;;;;;;;;;;4357446;33;20230;-86
2022/09/14 06:31:13;;;;;;;7.10;6.05;;;;;;;;;;4357559;33;20343;-85
2022/09/14 06:33:44;;;;;;;11.05;6.55;;;;;;;;;;4359170;32;20272;-85
2022/09/14 06:36:13;;;;;;;5.47;4.97;;;;;;;;;;4365289;32;20257;-85
2022/09/14 06:38:41;;;;;;;16.13;5.70;;;;;;;;;;4395296;32;20214;-86
2022/09/14 06:41:11;;;;;;;9.00;5.37;;;;;;;;;;4398800;32;20347;-84
2022/09/14 06:43:41;;;;;;;25.07;6.77;;;;;;;;;;4396621;32;20171;-84
2022/09/14 06:46:11;;;;;;;7.90;5.90;;;;;;;;;;4403399;32;20452;-84
2022/09/14 06:48:40;;;;;;;9.75;5.12;;;;;;;;;;4400710;32;20249;-85
2022/09/14 06:51:17;;;;;;;11.57;5.80;;;;;;;;;;4406103;32;20276;-86
2022/09/14 06:53:46;;;;;;;7.97;6.10;;;;;;;;;;4406428;32;20221;-85
2022/09/14 06:56:13;;;;;;;10.13;6.43;;;;;;;;;;4405446;32;20245;-85
2022/09/14 06:58:42;;;;;;;10.90;6.03;;;;;;;;;;4404740;32;20596;-86
2022/09/14 07:01:15;;;;;;;8.00;5.37;;;;;;;;;;4384278;32;20261;-84
2022/09/14 07:03:43;;;;;;;8.52;4.37;;;;;;;;;;4390873;32;20263;-84
2022/09/14 07:06:15;;;;;;;19.90;5.53;;;;;;;;;;4390105;32;20259;-83
2022/09/14 07:08:43;;;;;;;14.00;5.03;;;;;;;;;;4377602;32;20292;-84
2022/09/14 07:11:11;;;;;;;13.18;4.70;;;;;;;;;;4391233;32;20241;-84
2022/09/14 07:13:39;;;;;;;6.37;4.85;;;;;;;;;;4412264;32;20231;-85
2022/09/14 07:16:08;;;;;;;8.68;5.40;;;;;;;;;;4405680;32;20283;-83
2022/09/14 07:18:36;;;;;;;9.83;5.37;;;;;;;;;;4405784;32;20581;-85
2022/09/14 07:21:04;;;;;;;10.75;5.22;;;;;;;;;;4406123;32;20216;-85
2022/09/14 07:23:31;;;;;;;13.07;5.53;;;;;;;;;;4406417;32;20661;-84
2022/09/14 07:26:06;;;;;;;15.80;5.50;;;;;;;;;;4392051;32;20658;-81
2022/09/14 07:28:37;;;;;;;12.82;4.47;;;;;;;;;;4405376;32;20724;-85
2022/09/14 07:31:14;;;;;;;10.40;4.40;;;;;;;;;;4405633;32;20238;-84
2022/09/14 07:33:40;;;;;;;9.90;4.70;;;;;;;;;;4405886;32;20634;-84
2022/09/14 07:36:08;;;;;;;20.00;4.60;;;;;;;;;;4405428;32;20347;-84
2022/09/14 07:38:36;;;;;;;12.00;5.80;;;;;;;;;;4404900;32;20619;-85
2022/09/14 07:41:03;;;;;;;13.32;4.28;;;;;;;;;;4404101;32;20321;-83
2022/09/14 07:43:30;;;;;;;7.43;4.05;;;;;;;;;;4395948;32;20234;-84
2022/09/14 07:45:57;;;;;;;4.43;3.65;;;;;;;;;;4403896;32;20214;-85
2022/09/14 07:48:29;;;;;;;7.37;4.03;;;;;;;;;;4403955;32;20275;-85
2022/09/14 07:51:04;;;;;;;5.30;3.53;;;;;;;;;;4393022;32;20233;-84
2022/09/14 07:53:32;;;;;;;9.02;3.72;;;;;;;;;;4397051;32;20315;-84
2022/09/14 07:56:02;;;;;;;7.10;3.37;;;;;;;;;;4389496;32;20284;-84
2022/09/14 07:58:32;;;;;;;8.38;4.05;;;;;;;;;;4388896;32;20226;-84
2022/09/14 08:00:59;;;;;;;4.20;3.45;;;;;;;;;;4395390;32;20259;-82
2022/09/14 08:03:28;;;;;;;5.15;3.47;;;;;;;;;;4401772;32;20248;-86
2022/09/14 08:06:01;;;;;;;4.10;3.67;;;;;;;;;;4395586;32;20649;-84
2022/09/14 08:08:31;;;;;;;9.20;2.97;;;;;;;;;;4396539;32;20311;-84
2022/09/14 08:11:04;;;;;;;10.95;3.58;;;;;;;;;;4404060;32;20425;-83
2022/09/14 08:13:33;;;;;;;4.37;3.28;;;;;;;;;;4378744;32;20297;-85
2022/09/14 08:16:01;;;;;;;4.72;3.95;;;;;;;;;;4390035;32;20230;-84
2022/09/14 08:18:36;;;;;;;15.27;4.35;;;;;;;;;;4403813;32;20783;-85
2022/09/14 08:21:05;;;;;;;4.95;3.65;;;;;;;;;;4397829;32;20225;-85
2022/09/14 08:23:32;;;;;;;9.45;3.55;;;;;;;;;;4388864;32;20909;-85
2022/09/14 08:26:04;;;;;;;5.62;3.47;;;;;;;;;;4388402;32;20343;-83
2022/09/14 08:28:33;;;;;;;3.65;2.85;;;;;;;;;;4388502;32;20340;-86
2022/09/14 08:31:04;;;;;;;7.97;3.58;;;;;;;;;;4388422;32;21326;-83
2022/09/14 08:33:37;;;;;;;4.60;3.10;;;;;;;;;;4388976;32;20317;-85
2022/09/14 08:36:06;;;;;;;9.27;3.78;;;;;;;;;;4390457;32;20248;-84
2022/09/14 08:38:35;;;;;;;5.35;2.90;;;;;;;;;;4397766;32;20225;-83
2022/09/14 08:41:16;;;;;;;8.40;2.97;;;;;;;;;;4392750;32;20751;-85
2022/09/14 08:43:43;;;;;;;5.07;3.53;;;;;;;;;;4388982;32;20277;-84
2022/09/14 08:46:20;;;;;;;4.47;3.00;;;;;;;;;;4388551;32;20245;-85
2022/09/14 08:48:49;;;;;;;11.00;3.40;;;;;;;;;;4388356;32;20242;-85
2022/09/14 08:51:17;;;;;;;3.78;2.97;;;;;;;;;;4402115;32;20627;-85
2022/09/14 08:53:45;;;;;;;9.18;3.25;;;;;;;;;;4404522;32;20205;-84
2022/09/14 08:56:15;;;;;;;5.53;3.55;;;;;;;;;;4403413;32;20241;-87
2022/09/14 08:59:04;;;;;;;6.28;3.50;;;;;;;;;;4404638;32;20232;-85
2022/09/14 09:01:43;;;;;;;4.80;3.60;;;;;;;;;;4403902;32;20369;-85
2022/09/14 09:04:38;;;;;;;8.07;3.65;;;;;;;;;;4404267;32;20206;-85
2022/09/14 09:07:16;;;;;;;8.25;3.90;;;;;;;;;;4403898;32;20870;-89
2022/09/14 09:09:46;;;;;;;8.75;3.72;;;;;;;;;;4404930;32;20768;-89
2022/09/14 09:12:17;;;;;;;5.53;4.65;;;;;;;;;;4400995;32;20581;-90
2022/09/14 09:14:49;;;;;;;5.60;3.78;;;;;;;;;;4404552;32;20232;-89
2022/09/14 09:17:20;;;;;;;5.68;3.60;;;;;;;;;;4404321;32;20245;-88
2022/09/14 09:19:56;;;;;;;11.23;3.40;;;;;;;;;;4405056;32;20225;-86
2022/09/14 09:22:28;;;;;;;6.78;3.28;;;;;;;;;;4404989;32;20319;-86
2022/09/14 09:24:58;;;;;;;7.37;4.03;;;;;;;;;;4390945;32;20291;-88
2022/09/14 09:27:29;;;;;;;6.80;3.12;;;;;;;;;;4405379;32;20226;-87
2022/09/14 09:29:57;;;;;;;7.70;3.00;;;;;;;;;;4405384;32;20583;-86
2022/09/14 09:32:25;;;;;;;4.40;3.05;;;;;;;;;;4405137;32;20229;-88
2022/09/14 09:34:54;;;;;;;8.52;3.70;;;;;;;;;;4405057;32;20651;-88
2022/09/14 09:37:23;;;;;;;5.62;3.20;;;;;;;;;;4404583;32;20225;-87
2022/09/14 09:39:51;;;;;;;15.20;3.12;;;;;;;;;;4403997;32;20249;-86
2022/09/14 09:42:27;;;;;;;10.65;3.80;;;;;;;;;;4404146;32;20244;-88
2022/09/14 09:44:56;;;;;;;3.87;3.37;;;;;;;;;;4389769;32;20352;-87
2022/09/14 09:47:33;;;;;;;8.23;3.03;;;;;;;;;;4390620;32;20245;-87
2022/09/14 09:50:07;;;;;;;6.40;3.58;;;;;;;;;;4399119;32;20648;-89
2022/09/14 09:52:35;;;;;;;13.50;2.83;;;;;;;;;;4390677;32;20258;-89
2022/09/14 09:55:04;;;;;;;9.90;2.95;;;;;;;;;;4389345;32;20916;-89
2022/09/14 09:57:34;;;;;;;5.30;2.53;;;;;;;;;;4390290;32;20218;-88
2022/09/14 10:00:19;;;;;;;4.80;3.22;;;;;;;;;;4390486;32;20268;-88
2022/09/14 10:02:45;;;;;;;5.00;2.50;;;;;;;;;;4389171;32;20241;-86
2022/09/14 10:05:24;;;;;;;3.40;2.53;;;;;;;;;;4392668;32;20255;-87
2022/09/14 10:07:56;;;;;;;4.72;3.15;;;;;;;;;;4404960;32;20239;-89
2022/09/14 10:10:27;;;;;;;5.03;2.20;;;;;;;;;;4404301;32;20229;-88
2022/09/14 10:12:56;;;;;;;5.68;3.15;;;;;;;;;;4398906;32;20824;-87
2022/09/14 10:15:25;;;;;;;9.80;3.25;;;;;;;;;;4389382;32;20678;-86
2022/09/14 10:18:04;;;;;;;7.25;2.42;;;;;;;;;;4403530;32;20264;-84
2022/09/14 10:20:34;;;;;;;3.40;2.25;;;;;;;;;;4403934;32;20263;-89
2022/09/14 10:23:25;;;;;;;4.07;2.25;;;;;;;;;;4404035;32;20221;-89
2022/09/14 10:25:54;;;;;;;3.10;2.58;;;;;;;;;;4404371;32;20300;-85
2022/09/14 10:28:26;;;;;;;3.33;2.92;;;;;;;;;;4403870;32;20699;-88
2022/09/14 10:30:59;;;;;;;3.70;2.70;;;;;;;;;;4404670;32;20665;-88
2022/09/14 10:33:26;;;;;;;2.10;1.90;;;;;;;;;;4405435;32;20261;-88
2022/09/14 10:36:04;;;;;;;5.18;2.17;;;;;;;;;;4405879;32;20299;-88
2022/09/14 10:38:35;;;;;;;2.62;2.37;;;;;;;;;;4405210;32;20241;-85
2022/09/14 10:41:23;;;;;;;7.55;3.17;;;;;;;;;;4404801;32;20263;-88
2022/09/14 10:44:08;;;;;;;4.45;2.62;;;;;;;;;;4407273;32;20334;-84
2022/09/14 10:46:42;;;;;;;3.42;1.73;;;;;;;;;;4416199;32;20217;-86
2022/09/14 10:49:23;;;;;;;4.00;2.30;;;;;;;;;;4416453;32;20248;-87
2022/09/14 10:52:03;;;;;;;3.65;1.80;;;;;;;;;;4418807;32;20370;-86
2022/09/14 10:55:01;;;;;;;5.15;2.35;;;;;;;;;;4419410;32;20327;-87
2022/09/14 10:57:39;;;;;;;3.20;2.20;;;;;;;;;;4416717;32;20695;-86
2022/09/14 11:00:12;;;;;;;6.40;2.40;;;;;;;;;;4419354;32;20185;-87
2022/09/14 11:03:05;;;;;;;3.60;2.17;;;;;;;;;;4396246;32;20206;-87
2022/09/14 11:05:37;;;;;;;2.28;1.60;;;;;;;;;;4404217;32;20232;-86
2022/09/14 11:08:12;;;;;;;7.72;2.40;;;;;;;;;;4404987;32;20265;-87
2022/09/14 11:10:53;;;;;;;3.72;2.00;;;;;;;;;;4403632;32;20218;-86
2022/09/14 11:13:40;;;;;;;6.05;2.15;;;;;;;;;;4411026;32;20233;-86
2022/09/14 11:16:23;;;;;;;9.35;2.17;;;;;;;;;;4413293;32;20246;-87
2022/09/14 11:19:00;;;;;;;3.08;2.03;;;;;;;;;;4415955;32;20300;-84
2022/09/14 11:21:40;;;;;;;3.97;1.58;;;;;;;;;;4401041;32;20287;-87
2022/09/14 11:24:16;;;;;;;4.43;1.83;;;;;;;;;;4408185;32;20214;-87
2022/09/14 11:26:49;;;;;;;3.97;1.87;;;;;;;;;;4406978;32;20253;-88
2022/09/14 11:29:20;;;;;;;7.55;2.17;;;;;;;;;;4408552;32;20330;-85
2022/09/14 11:31:53;;;;;;;3.55;1.58;;;;;;;;;;4407165;32;20310;-87
2022/09/14 11:37:09;;;;;;;3.10;1.60;;;;;;;;;;4405498;32;20265;-86
2022/09/14 11:39:41;;;;;;;2.45;2.00;;;;;;;;;;4406521;32;21006;-84
2022/09/14 11:42:14;;;;;;;4.57;2.15;;;;;;;;;;4405322;32;20234;-87
2022/09/14 11:44:43;;;;;;;1.83;1.48;;;;;;;;;;4406248;32;20296;-91
2022/09/14 11:47:16;;;;;;;5.80;2.20;;;;;;;;;;4406196;32;20302;-90
2022/09/14 11:49:56;;;;;;;3.30;1.62;;;;;;;;;;4402089;32;20233;-87
2022/09/14 11:52:25;;;;;;;2.30;1.60;;;;;;;;;;4391159;32;20214;-86
2022/09/14 11:54:55;;;;;;;4.68;1.48;;;;;;;;;;4391255;32;20265;-89
2022/09/14 11:57:25;;;;;;;4.03;2.00;;;;;;;;;;4393102;32;20225;-87
2022/09/14 11:59:53;;;;;;;5.62;1.80;;;;;;;;;;4405539;32;20317;-85
2022/09/14 12:02:47;;;;;;;2.72;1.35;;;;;;;;;;4405798;32;20279;-88
2022/09/14 12:05:48;;;;;;;5.90;1.50;;;;;;;;;;4405346;32;20263;-86
2022/09/14 12:08:38;;;;;;;2.92;1.62;;;;;;;;;;4373020;32;20351;-88
2022/09/14 12:11:31;;;;;;;3.35;1.50;;;;;;;;;;4372260;32;20300;-87
2022/09/14 12:14:26;;;;;;;2.85;1.37;;;;;;;;;;4370021;32;20230;-88
2022/09/14 12:17:15;;;;;;;4.35;1.50;;;;;;;;;;4372358;32;20260;-87
2022/09/14 12:19:43;;;;;;;2.15;1.52;;;;;;;;;;4367503;32;20536;-87
2022/09/14 12:22:27;;;;;;;2.12;1.40;;;;;;;;;;4373149;32;20245;-88
2022/09/14 12:25:17;;;;;;;7.80;2.33;;;;;;;;;;4372796;32;20237;-87
2022/09/14 12:27:48;;;;;;;2.72;1.60;;;;;;;;;;4404671;32;20240;-88
2022/09/14 12:30:34;;;;;;;6.20;1.62;;;;;;;;;;4405399;32;20229;-85
2022/09/14 12:33:01;;;;;;;4.32;1.58;;;;;;;;;;4405203;32;20264;-86
2022/09/14 12:35:46;;;;;;;3.45;1.30;;;;;;;;;;4405771;32;20217;-85
2022/09/14 12:38:53;;;;;;;5.60;1.87;;;;;;;;;;4404720;32;20713;-90
2022/09/14 12:42:06;;;;;;;3.05;1.30;;;;;;;;;;4400297;32;20252;-88
2022/09/14 12:44:39;;;;;;;2.10;1.58;;;;;;;;;;4368821;32;20634;-87
2022/09/14 12:47:58;;;;;;;5.20;1.40;;;;;;;;;;4404847;32;20253;-90
2022/09/14 12:50:33;;;;;;;1.35;1.00;;;;;;;;;;4397640;32;20812;-83
2022/09/14 12:53:35;;;;;;;3.22;1.50;;;;;;;;;;4389986;32;20280;-89
2022/09/14 12:56:04;;;;;;;3.15;1.40;;;;;;;;;;4389906;32;20261;-92
2022/09/14 12:58:58;;;;;;;7.50;1.55;;;;;;;;;;4398788;32;20339;-84
2022/09/14 13:01:36;;;;;;;5.43;1.20;;;;;;;;;;4405119;32;20222;-87
2022/09/14 13:04:04;;;;;;;1.92;1.40;;;;;;;;;;4405315;32;20274;-86
2022/09/14 13:06:39;;;;;;;1.98;1.17;;;;;;;;;;4404144;32;20460;-87
2022/09/14 13:09:15;;;;;;;2.83;1.08;;;;;;;;;;4404621;32;20237;-86
2022/09/14 13:11:42;;;;;;;3.33;1.10;;;;;;;;;;4401101;32;20295;-88
2022/09/14 13:14:16;;;;;;;4.62;1.10;;;;;;;;;;4388847;32;20225;-87
2022/09/14 13:16:50;;;;;;;7.28;2.10;;;;;;;;;;4389900;32;20214;-87
2022/09/14 13:19:23;;;;;;;1.12;1.00;;;;;;;;;;4389978;32;20280;-88
2022/09/14 13:21:53;;;;;;;5.35;1.25;;;;;;;;;;4389471;32;20276;-90
2022/09/14 13:24:26;;;;;;;3.37;1.52;;;;;;;;;;4389766;32;20754;-87
2022/09/14 13:26:57;;;;;;;3.75;1.37;;;;;;;;;;4389278;32;20225;-84
2022/09/14 13:29:25;;;;;;;8.52;1.80;;;;;;;;;;4389713;32;20281;-87
2022/09/14 13:31:56;;;;;;;5.78;1.40;;;;;;;;;;4389191;32;20248;-87
2022/09/14 13:34:29;;;;;;;4.15;1.62;;;;;;;;;;4389048;32;20657;-84
2022/09/14 13:36:57;;;;;;;7.85;1.10;;;;;;;;;;4388601;32;20234;-87
2022/09/14 13:39:28;;;;;;;3.00;1.12;;;;;;;;;;4388626;32;20238;-86
2022/09/14 13:41:55;;;;;;;4.55;2.00;;;;;;;;;;4388473;32;20236;-87
2022/09/14 13:44:28;;;;;;;3.70;1.40;;;;;;;;;;4389175;32;20809;-86
2022/09/14 13:46:59;;;;;;;6.78;1.55;;;;;;;;;;4389254;32;20220;-88
2022/09/14 13:49:28;;;;;;;1.20;1.05;;;;;;;;;;4390349;32;20248;-87
2022/09/14 13:52:26;;;;;;;1.30;1.08;;;;;;;;;;4404605;32;20410;-86
2022/09/14 13:54:56;;;;;;;4.22;1.17;;;;;;;;;;4394447;32;20303;-84
2022/09/14 13:57:24;;;;;;;2.85;1.15;;;;;;;;;;4388987;32;20213;-84
2022/09/14 14:00:08;;;;;;;3.95;2.03;;;;;;;;;;4388554;32;20320;-85
2022/09/14 14:02:36;;;;;;;2.45;1.70;;;;;;;;;;4388799;32;20222;-87
2022/09/14 14:05:05;;;;;;;1.92;1.40;;;;;;;;;;4388667;32;20241;-83
2022/09/14 14:07:33;;;;;;;2.40;1.35;;;;;;;;;;4388866;32;20648;-85
2022/09/14 14:10:02;;;;;;;7.82;1.10;;;;;;;;;;4388081;32;20309;-87
2022/09/14 14:12:35;;;;;;;2.28;1.15;;;;;;;;;;4396789;32;20255;-87
2022/09/14 14:15:08;;;;;;;2.72;1.48;;;;;;;;;;4404564;32;20266;-89
2022/09/14 14:17:40;;;;;;;4.20;1.48;;;;;;;;;;4405386;32;20265;-88
2022/09/14 14:20:41;;;;;;;4.22;1.50;;;;;;;;;;4405815;32;20303;-90
2022/09/14 14:23:22;;;;;;;1.95;1.37;;;;;;;;;;4406395;32;20257;-90
2022/09/14 14:26:07;;;;;;;3.33;1.15;;;;;;;;;;4406045;32;20255;-92
2022/09/14 14:28:43;;;;;;;1.90;1.48;;;;;;;;;;4406557;32;20241;-92
2022/09/14 14:31:14;;;;;;;3.47;1.27;;;;;;;;;;4404987;32;20233;-91
2022/09/14 14:33:49;;;;;;;1.60;1.12;;;;;;;;;;4406377;32;20233;-94
2022/09/14 14:36:18;;;;;;;5.82;1.10;;;;;;;;;;4405173;32;20213;-94
2022/09/14 14:38:46;;;;;;;2.85;1.30;;;;;;;;;;4404858;32;20244;-85
2022/09/14 14:41:15;;;;;;;1.77;1.00;;;;;;;;;;4404814;32;20289;-92
2022/09/14 14:43:48;;;;;;;2.25;1.23;;;;;;;;;;4405440;32;20335;-90
2022/09/14 14:46:16;;;;;;;1.45;1.05;;;;;;;;;;4406684;32;20283;-92
2022/09/14 14:48:43;;;;;;;5.97;1.92;;;;;;;;;;4408049;32;20333;-92
2022/09/14 14:51:14;;;;;;;3.17;1.45;;;;;;;;;;4404296;32;20240;-88
2022/09/14 14:53:44;;;;;;;3.15;1.50;;;;;;;;;;4406733;32;20590;-88
2022/09/14 14:56:12;;;;;;;11.40;1.55;;;;;;;;;;4407497;32;20772;-91
2022/09/14 14:58:44;;;;;;;2.25;1.33;;;;;;;;;;4407100;32;20328;-86
2022/09/14 15:01:12;;;;;;;4.47;1.60;;;;;;;;;;4398170;32;21023;-89
2022/09/14 15:03:39;;;;;;;2.78;1.33;;;;;;;;;;4402345;32;20265;-90
2022/09/14 15:06:23;;;;;;;1.87;1.50;;;;;;;;;;4393752;32;20719;-86
2022/09/14 15:08:53;;;;;;;2.37;1.37;;;;;;;;;;4395228;32;20290;-90
2022/09/14 15:11:21;;;;;;;5.00;2.33;;;;;;;;;;4397509;32;20244;-87
2022/09/14 15:13:51;;;;;;;4.87;2.53;;;;;;;;;;4390575;32;20245;-87